sensor_id;sensor_type;location;lat;lon;timestamp;P1;durP1;ratioP1;P2;durP2;ratioP2
20144;SDS011;10233;50.814;6.590;2023-01-13T00:00:08;0.70;;;0.13;;
20144;SDS011;10233;50.814;6.590;2023-01-13T00:01:12;0.20;;;0.10;;
20144;SDS011;10233;50.814;6.590;2023-01-13T00:02:17;0.10;;;0.10;;
20144;SDS011;10233;50.814;6.590;2023-01-13T00:03:17;0.43;;;0.17;;
20144;SDS011;10233;50.814;6.590;2023-01-13T00:04:18;0.10;;;0.08;;
20144;SDS011;10233;50.814;6.590;2023-01-13T00:05:18;0.53;;;0.10;;
20144;SDS011;10233;50.814;6.590;2023-01-13T00:06:20;1.00;;;0.30;;
20144;SDS011;10233;50.814;6.590;2023-01-13T00:07:24;1.98;;;0.22;;
20144;SDS011;10233;50.814;6.590;2023-01-13T00:08:25;0.30;;;0.22;;
20144;SDS011;10233;50.814;6.590;2023-01-13T00:09:25;0.80;;;0.40;;
20144;SDS011;10233;50.814;6.590;2023-01-13T00:10:26;0.30;;;0.20;;
20144;SDS011;10233;50.814;6.590;2023-01-13T00:11:26;0.10;;;0.10;;
20144;SDS011;10233;50.814;6.590;2023-01-13T00:12:27;0.20;;;0.20;;
20144;SDS011;10233;50.814;6.590;2023-01-13T00:13:27;0.60;;;0.20;;
20144;SDS011;10233;50.814;6.590;2023-01-13T00:14:28;0.93;;;0.20;;
20144;SDS011;10233;50.814;6.590;2023-01-13T00:15:29;0.77;;;0.30;;
20144;SDS011;10233;50.814;6.590;2023-01-13T00:16:29;0.60;;;0.20;;
20144;SDS011;10233;50.814;6.590;2023-01-13T00:17:30;0.10;;;0.10;;
20144;SDS011;10233;50.814;6.590;2023-01-13T00:18:31;0.20;;;0.10;;
20144;SDS011;10233;50.814;6.590;2023-01-13T00:19:32;0.47;;;0.30;;
20144;SDS011;10233;50.814;6.590;2023-01-13T00:20:33;0.97;;;0.40;;
20144;SDS011;10233;50.814;6.590;2023-01-13T00:21:33;1.73;;;0.60;;
20144;SDS011;10233;50.814;6.590;2023-01-13T00:22:34;0.30;;;0.20;;
20144;SDS011;10233;50.814;6.590;2023-01-13T00:23:35;0.40;;;0.30;;
20144;SDS011;10233;50.814;6.590;2023-01-13T00:24:36;0.45;;;0.15;;
20144;SDS011;10233;50.814;6.590;2023-01-13T00:25:36;0.40;;;0.10;;
20144;SDS011;10233;50.814;6.590;2023-01-13T00:26:36;0.40;;;0.10;;
20144;SDS011;10233;50.814;6.590;2023-01-13T00:27:37;0.30;;;0.20;;
20144;SDS011;10233;50.814;6.590;2023-01-13T00:28:38;0.50;;;0.28;;
20144;SDS011;10233;50.814;6.590;2023-01-13T00:29:39;0.32;;;0.20;;
20144;SDS011;10233;50.814;6.590;2023-01-13T00:30:39;0.90;;;0.30;;
20144;SDS011;10233;50.814;6.590;2023-01-13T00:31:40;0.95;;;0.40;;
20144;SDS011;10233;50.814;6.590;2023-01-13T00:32:40;0.60;;;0.27;;
20144;SDS011;10233;50.814;6.590;2023-01-13T00:33:40;0.20;;;0.20;;
20144;SDS011;10233;50.814;6.590;2023-01-13T00:34:41;0.95;;;0.40;;
20144;SDS011;10233;50.814;6.590;2023-01-13T00:35:42;0.45;;;0.30;;
20144;SDS011;10233;50.814;6.590;2023-01-13T00:36:42;0.50;;;0.20;;
20144;SDS011;10233;50.814;6.590;2023-01-13T00:37:42;0.83;;;0.20;;
20144;SDS011;10233;50.814;6.590;2023-01-13T00:38:43;0.32;;;0.30;;
20144;SDS011;10233;50.814;6.590;2023-01-13T00:39:43;0.30;;;0.30;;
20144;SDS011;10233;50.814;6.590;2023-01-13T00:40:53;0.17;;;0.17;;
20144;SDS011;10233;50.814;6.590;2023-01-13T00:41:54;0.20;;;0.20;;
20144;SDS011;10233;50.814;6.590;2023-01-13T00:43:13;0.32;;;0.32;;
20144;SDS011;10233;50.814;6.590;2023-01-13T00:44:23;0.20;;;0.10;;
20144;SDS011;10233;50.814;6.590;2023-01-13T00:45:23;0.30;;;0.17;;
20144;SDS011;10233;50.814;6.590;2023-01-13T00:46:24;0.35;;;0.20;;
20144;SDS011;10233;50.814;6.590;2023-01-13T00:47:24;0.90;;;0.10;;
20144;SDS011;10233;50.814;6.590;2023-01-13T00:48:25;0.40;;;0.10;;
20144;SDS011;10233;50.814;6.590;2023-01-13T00:49:26;0.20;;;0.20;;
20144;SDS011;10233;50.814;6.590;2023-01-13T00:50:26;0.90;;;0.13;;
20144;SDS011;10233;50.814;6.590;2023-01-13T00:51:29;0.17;;;0.10;;
20144;SDS011;10233;50.814;6.590;2023-01-13T00:52:30;0.20;;;0.20;;
20144;SDS011;10233;50.814;6.590;2023-01-13T00:53:32;1.52;;;0.20;;
20144;SDS011;10233;50.814;6.590;2023-01-13T00:54:35;0.40;;;0.30;;
20144;SDS011;10233;50.814;6.590;2023-01-13T00:55:35;0.47;;;0.20;;
20144;SDS011;10233;50.814;6.590;2023-01-13T00:56:36;0.45;;;0.20;;
20144;SDS011;10233;50.814;6.590;2023-01-13T00:57:36;0.30;;;0.20;;
20144;SDS011;10233;50.814;6.590;2023-01-13T00:58:38;0.35;;;0.20;;
20144;SDS011;10233;50.814;6.590;2023-01-13T00:59:39;0.40;;;0.17;;
20144;SDS011;10233;50.814;6.590;2023-01-13T01:00:40;0.60;;;0.20;;
20144;SDS011;10233;50.814;6.590;2023-01-13T01:01:41;0.63;;;0.20;;
20144;SDS011;10233;50.814;6.590;2023-01-13T01:02:41;0.75;;;0.10;;
20144;SDS011;10233;50.814;6.590;2023-01-13T01:03:42;1.20;;;0.30;;
20144;SDS011;10233;50.814;6.590;2023-01-13T01:04:43;0.90;;;0.30;;
20144;SDS011;10233;50.814;6.590;2023-01-13T01:05:43;1.17;;;0.30;;
20144;SDS011;10233;50.814;6.590;2023-01-13T01:06:43;2.37;;;0.23;;
20144;SDS011;10233;50.814;6.590;2023-01-13T01:07:44;2.13;;;0.33;;
20144;SDS011;10233;50.814;6.590;2023-01-13T01:08:44;0.80;;;0.20;;
20144;SDS011;10233;50.814;6.590;2023-01-13T01:09:45;1.00;;;0.30;;
20144;SDS011;10233;50.814;6.590;2023-01-13T01:10:45;0.85;;;0.20;;
20144;SDS011;10233;50.814;6.590;2023-01-13T01:11:46;0.30;;;0.20;;
20144;SDS011;10233;50.814;6.590;2023-01-13T01:12:46;3.10;;;0.40;;
20144;SDS011;10233;50.814;6.590;2023-01-13T01:13:47;2.50;;;0.50;;
20144;SDS011;10233;50.814;6.590;2023-01-13T01:14:51;2.97;;;0.40;;
20144;SDS011;10233;50.814;6.590;2023-01-13T01:15:51;1.20;;;0.30;;
20144;SDS011;10233;50.814;6.590;2023-01-13T01:16:52;1.27;;;0.30;;
20144;SDS011;10233;50.814;6.590;2023-01-13T01:17:53;0.63;;;0.20;;
20144;SDS011;10233;50.814;6.590;2023-01-13T01:18:54;1.95;;;0.50;;
20144;SDS011;10233;50.814;6.590;2023-01-13T01:19:54;1.50;;;0.50;;
20144;SDS011;10233;50.814;6.590;2023-01-13T01:20:57;4.50;;;0.60;;
20144;SDS011;10233;50.814;6.590;2023-01-13T01:21:58;2.40;;;0.50;;
20144;SDS011;10233;50.814;6.590;2023-01-13T01:22:59;2.00;;;0.70;;
20144;SDS011;10233;50.814;6.590;2023-01-13T01:24:00;1.40;;;0.40;;
20144;SDS011;10233;50.814;6.590;2023-01-13T01:25:03;0.50;;;0.30;;
20144;SDS011;10233;50.814;6.590;2023-01-13T01:26:05;3.72;;;0.32;;
20144;SDS011;10233;50.814;6.590;2023-01-13T01:27:19;1.15;;;0.40;;
20144;SDS011;10233;50.814;6.590;2023-01-13T01:28:19;2.17;;;0.40;;
20144;SDS011;10233;50.814;6.590;2023-01-13T01:29:20;1.00;;;0.40;;
20144;SDS011;10233;50.814;6.590;2023-01-13T01:30:20;2.10;;;0.40;;
20144;SDS011;10233;50.814;6.590;2023-01-13T01:32:40;1.48;;;0.50;;
20144;SDS011;10233;50.814;6.590;2023-01-13T01:33:40;2.40;;;0.40;;
20144;SDS011;10233;50.814;6.590;2023-01-13T01:34:41;0.60;;;0.20;;
20144;SDS011;10233;50.814;6.590;2023-01-13T01:35:42;1.73;;;0.30;;
20144;SDS011;10233;50.814;6.590;2023-01-13T01:36:42;1.23;;;0.30;;
20144;SDS011;10233;50.814;6.590;2023-01-13T01:37:43;1.60;;;0.50;;
20144;SDS011;10233;50.814;6.590;2023-01-13T01:38:43;0.83;;;0.30;;
20144;SDS011;10233;50.814;6.590;2023-01-13T01:39:44;3.03;;;0.55;;
20144;SDS011;10233;50.814;6.590;2023-01-13T01:40:44;0.87;;;0.37;;
20144;SDS011;10233;50.814;6.590;2023-01-13T01:41:45;2.63;;;0.50;;
20144;SDS011;10233;50.814;6.590;2023-01-13T01:43:11;3.03;;;0.70;;
20144;SDS011;10233;50.814;6.590;2023-01-13T01:45:42;0.88;;;0.40;;
20144;SDS011;10233;50.814;6.590;2023-01-13T01:46:42;3.00;;;0.70;;
20144;SDS011;10233;50.814;6.590;2023-01-13T01:47:44;1.00;;;0.38;;
20144;SDS011;10233;50.814;6.590;2023-01-13T01:48:47;3.22;;;0.45;;
20144;SDS011;10233;50.814;6.590;2023-01-13T01:49:48;1.67;;;0.33;;
20144;SDS011;10233;50.814;6.590;2023-01-13T01:50:48;2.25;;;0.50;;
20144;SDS011;10233;50.814;6.590;2023-01-13T01:51:52;1.73;;;0.50;;
20144;SDS011;10233;50.814;6.590;2023-01-13T01:53:12;1.27;;;0.50;;
20144;SDS011;10233;50.814;6.590;2023-01-13T01:54:19;0.75;;;0.45;;
20144;SDS011;10233;50.814;6.590;2023-01-13T01:55:31;1.42;;;0.40;;
20144;SDS011;10233;50.814;6.590;2023-01-13T01:56:34;1.98;;;0.40;;
20144;SDS011;10233;50.814;6.590;2023-01-13T01:57:40;2.65;;;0.50;;
20144;SDS011;10233;50.814;6.590;2023-01-13T01:58:46;2.40;;;0.40;;
20144;SDS011;10233;50.814;6.590;2023-01-13T01:59:50;0.80;;;0.30;;
20144;SDS011;10233;50.814;6.590;2023-01-13T02:00:50;1.05;;;0.28;;
20144;SDS011;10233;50.814;6.590;2023-01-13T02:01:51;0.47;;;0.20;;
20144;SDS011;10233;50.814;6.590;2023-01-13T02:02:51;2.10;;;0.50;;
20144;SDS011;10233;50.814;6.590;2023-01-13T02:03:57;3.83;;;0.50;;
20144;SDS011;10233;50.814;6.590;2023-01-13T02:05:01;1.70;;;0.20;;
20144;SDS011;10233;50.814;6.590;2023-01-13T02:06:02;0.63;;;0.28;;
20144;SDS011;10233;50.814;6.590;2023-01-13T02:07:03;0.90;;;0.30;;
20144;SDS011;10233;50.814;6.590;2023-01-13T02:08:03;2.05;;;0.30;;
20144;SDS011;10233;50.814;6.590;2023-01-13T02:09:04;2.33;;;0.50;;
20144;SDS011;10233;50.814;6.590;2023-01-13T02:10:08;1.65;;;0.35;;
20144;SDS011;10233;50.814;6.590;2023-01-13T02:11:26;2.25;;;0.30;;
20144;SDS011;10233;50.814;6.590;2023-01-13T02:12:47;0.20;;;0.20;;
20144;SDS011;10233;50.814;6.590;2023-01-13T02:13:48;1.75;;;0.30;;
20144;SDS011;10233;50.814;6.590;2023-01-13T02:14:49;2.20;;;0.40;;
20144;SDS011;10233;50.814;6.590;2023-01-13T02:17:06;1.13;;;0.30;;
20144;SDS011;10233;50.814;6.590;2023-01-13T02:18:37;1.50;;;0.30;;
20144;SDS011;10233;50.814;6.590;2023-01-13T02:24:51;1.35;;;0.30;;
20144;SDS011;10233;50.814;6.590;2023-01-13T02:26:21;0.73;;;0.20;;
20144;SDS011;10233;50.814;6.590;2023-01-13T02:30:43;1.55;;;0.40;;
20144;SDS011;10233;50.814;6.590;2023-01-13T02:32:10;1.55;;;0.40;;
20144;SDS011;10233;50.814;6.590;2023-01-13T02:34:38;2.80;;;0.40;;
20144;SDS011;10233;50.814;6.590;2023-01-13T02:35:46;0.88;;;0.50;;
20144;SDS011;10233;50.814;6.590;2023-01-13T02:36:58;1.27;;;0.47;;
20144;SDS011;10233;50.814;6.590;2023-01-13T02:38:04;2.95;;;0.40;;
20144;SDS011;10233;50.814;6.590;2023-01-13T02:39:13;3.08;;;0.60;;
20144;SDS011;10233;50.814;6.590;2023-01-13T02:40:22;2.50;;;0.43;;
20144;SDS011;10233;50.814;6.590;2023-01-13T02:41:35;1.88;;;0.45;;
20144;SDS011;10233;50.814;6.590;2023-01-13T02:44:27;3.33;;;0.60;;
20144;SDS011;10233;50.814;6.590;2023-01-13T02:45:36;3.78;;;0.85;;
20144;SDS011;10233;50.814;6.590;2023-01-13T02:46:45;3.40;;;0.55;;
20144;SDS011;10233;50.814;6.590;2023-01-13T02:47:49;2.50;;;0.65;;
20144;SDS011;10233;50.814;6.590;2023-01-13T02:48:54;4.57;;;0.73;;
20144;SDS011;10233;50.814;6.590;2023-01-13T02:50:00;4.72;;;0.63;;
20144;SDS011;10233;50.814;6.590;2023-01-13T02:51:08;3.03;;;0.50;;
20144;SDS011;10233;50.814;6.590;2023-01-13T02:52:14;3.25;;;0.50;;
20144;SDS011;10233;50.814;6.590;2023-01-13T02:53:21;2.78;;;0.77;;
20144;SDS011;10233;50.814;6.590;2023-01-13T02:54:33;4.55;;;0.65;;
20144;SDS011;10233;50.814;6.590;2023-01-13T02:55:37;3.03;;;0.65;;
20144;SDS011;10233;50.814;6.590;2023-01-13T02:56:43;5.85;;;0.73;;
20144;SDS011;10233;50.814;6.590;2023-01-13T02:57:48;5.90;;;0.95;;
20144;SDS011;10233;50.814;6.590;2023-01-13T02:58:51;5.38;;;0.93;;
20144;SDS011;10233;50.814;6.590;2023-01-13T02:59:55;4.47;;;0.85;;
20144;SDS011;10233;50.814;6.590;2023-01-13T03:00:55;4.80;;;0.80;;
20144;SDS011;10233;50.814;6.590;2023-01-13T03:01:56;3.67;;;0.90;;
20144;SDS011;10233;50.814;6.590;2023-01-13T03:02:58;3.63;;;0.75;;
20144;SDS011;10233;50.814;6.590;2023-01-13T03:04:10;3.50;;;0.85;;
20144;SDS011;10233;50.814;6.590;2023-01-13T03:05:12;3.42;;;0.82;;
20144;SDS011;10233;50.814;6.590;2023-01-13T03:09:11;4.57;;;1.17;;
20144;SDS011;10233;50.814;6.590;2023-01-13T03:11:27;7.57;;;1.40;;
20144;SDS011;10233;50.814;6.590;2023-01-13T03:12:45;3.08;;;0.60;;
20144;SDS011;10233;50.814;6.590;2023-01-13T03:15:04;6.35;;;1.20;;
20144;SDS011;10233;50.814;6.590;2023-01-13T03:16:27;6.55;;;1.40;;
20144;SDS011;10233;50.814;6.590;2023-01-13T03:17:37;4.80;;;0.73;;
20144;SDS011;10233;50.814;6.590;2023-01-13T03:18:44;4.97;;;1.20;;
20144;SDS011;10233;50.814;6.590;2023-01-13T03:19:55;6.97;;;1.00;;
20144;SDS011;10233;50.814;6.590;2023-01-13T03:21:10;5.82;;;1.48;;
20144;SDS011;10233;50.814;6.590;2023-01-13T03:22:32;6.63;;;0.93;;
20144;SDS011;10233;50.814;6.590;2023-01-13T03:24:42;6.68;;;1.33;;
20144;SDS011;10233;50.814;6.590;2023-01-13T03:25:23;6.03;;;1.23;;
20144;SDS011;10233;50.814;6.590;2023-01-13T03:26:36;7.15;;;1.17;;
20144;SDS011;10233;50.814;6.590;2023-01-13T03:27:52;5.95;;;1.35;;
20144;SDS011;10233;50.814;6.590;2023-01-13T03:29:00;5.57;;;1.25;;
20144;SDS011;10233;50.814;6.590;2023-01-13T03:31:18;7.82;;;1.52;;
20144;SDS011;10233;50.814;6.590;2023-01-13T03:32:24;7.78;;;1.30;;
20144;SDS011;10233;50.814;6.590;2023-01-13T03:33:39;6.85;;;1.30;;
20144;SDS011;10233;50.814;6.590;2023-01-13T03:34:46;8.32;;;1.63;;
20144;SDS011;10233;50.814;6.590;2023-01-13T03:35:50;9.38;;;1.30;;
20144;SDS011;10233;50.814;6.590;2023-01-13T03:36:55;8.23;;;1.30;;
20144;SDS011;10233;50.814;6.590;2023-01-13T03:38:01;8.02;;;1.70;;
20144;SDS011;10233;50.814;6.590;2023-01-13T03:39:06;7.47;;;1.40;;
20144;SDS011;10233;50.814;6.590;2023-01-13T03:40:13;8.57;;;1.52;;
20144;SDS011;10233;50.814;6.590;2023-01-13T03:41:19;9.90;;;1.30;;
20144;SDS011;10233;50.814;6.590;2023-01-13T03:42:25;8.37;;;1.50;;
20144;SDS011;10233;50.814;6.590;2023-01-13T03:43:30;9.05;;;1.50;;
20144;SDS011;10233;50.814;6.590;2023-01-13T03:44:57;7.75;;;1.52;;
20144;SDS011;10233;50.814;6.590;2023-01-13T03:46:05;9.63;;;1.48;;
20144;SDS011;10233;50.814;6.590;2023-01-13T03:47:15;7.10;;;1.63;;
20144;SDS011;10233;50.814;6.590;2023-01-13T03:48:19;6.72;;;1.30;;
20144;SDS011;10233;50.814;6.590;2023-01-13T03:49:31;10.25;;;1.50;;
20144;SDS011;10233;50.814;6.590;2023-01-13T03:50:41;8.20;;;1.80;;
20144;SDS011;10233;50.814;6.590;2023-01-13T03:51:48;10.07;;;1.63;;
20144;SDS011;10233;50.814;6.590;2023-01-13T03:52:55;10.70;;;1.92;;
20144;SDS011;10233;50.814;6.590;2023-01-13T03:54:02;12.30;;;1.80;;
20144;SDS011;10233;50.814;6.590;2023-01-13T03:55:13;4.55;;;1.42;;
20144;SDS011;10233;50.814;6.590;2023-01-13T03:56:21;9.15;;;1.83;;
20144;SDS011;10233;50.814;6.590;2023-01-13T03:57:28;9.18;;;1.58;;
20144;SDS011;10233;50.814;6.590;2023-01-13T03:58:34;8.60;;;1.42;;
20144;SDS011;10233;50.814;6.590;2023-01-13T03:59:41;8.65;;;1.40;;
20144;SDS011;10233;50.814;6.590;2023-01-13T04:00:46;9.27;;;1.70;;
20144;SDS011;10233;50.814;6.590;2023-01-13T04:02:03;8.73;;;1.88;;
20144;SDS011;10233;50.814;6.590;2023-01-13T04:03:13;11.57;;;1.75;;
20144;SDS011;10233;50.814;6.590;2023-01-13T04:04:25;8.53;;;1.63;;
20144;SDS011;10233;50.814;6.590;2023-01-13T04:05:31;10.93;;;1.63;;
20144;SDS011;10233;50.814;6.590;2023-01-13T04:07:12;11.35;;;1.77;;
20144;SDS011;10233;50.814;6.590;2023-01-13T04:08:22;11.07;;;2.22;;
20144;SDS011;10233;50.814;6.590;2023-01-13T04:10:37;10.95;;;1.90;;
20144;SDS011;10233;50.814;6.590;2023-01-13T04:11:44;10.55;;;2.10;;
20144;SDS011;10233;50.814;6.590;2023-01-13T04:14:01;13.10;;;1.90;;
20144;SDS011;10233;50.814;6.590;2023-01-13T04:15:04;13.13;;;1.67;;
20144;SDS011;10233;50.814;6.590;2023-01-13T04:16:08;15.23;;;2.55;;
20144;SDS011;10233;50.814;6.590;2023-01-13T04:17:10;9.70;;;1.47;;
20144;SDS011;10233;50.814;6.590;2023-01-13T04:19:13;7.15;;;1.63;;
20144;SDS011;10233;50.814;6.590;2023-01-13T04:20:14;8.23;;;1.83;;
20144;SDS011;10233;50.814;6.590;2023-01-13T04:21:14;12.77;;;1.83;;
20144;SDS011;10233;50.814;6.590;2023-01-13T04:22:15;10.20;;;2.00;;
20144;SDS011;10233;50.814;6.590;2023-01-13T04:23:16;10.50;;;2.13;;
20144;SDS011;10233;50.814;6.590;2023-01-13T04:24:17;12.35;;;2.03;;
20144;SDS011;10233;50.814;6.590;2023-01-13T04:25:18;10.43;;;1.80;;
20144;SDS011;10233;50.814;6.590;2023-01-13T04:26:18;9.52;;;1.80;;
20144;SDS011;10233;50.814;6.590;2023-01-13T04:27:18;8.07;;;2.13;;
20144;SDS011;10233;50.814;6.590;2023-01-13T04:28:19;12.60;;;1.70;;
20144;SDS011;10233;50.814;6.590;2023-01-13T04:29:20;9.13;;;1.40;;
20144;SDS011;10233;50.814;6.590;2023-01-13T04:30:21;13.20;;;1.80;;
20144;SDS011;10233;50.814;6.590;2023-01-13T04:31:22;13.27;;;2.20;;
20144;SDS011;10233;50.814;6.590;2023-01-13T04:32:23;13.07;;;2.05;;
20144;SDS011;10233;50.814;6.590;2023-01-13T04:33:23;8.63;;;1.47;;
20144;SDS011;10233;50.814;6.590;2023-01-13T04:34:24;8.63;;;1.90;;
20144;SDS011;10233;50.814;6.590;2023-01-13T04:35:24;8.27;;;1.80;;
20144;SDS011;10233;50.814;6.590;2023-01-13T04:36:27;13.35;;;1.75;;
20144;SDS011;10233;50.814;6.590;2023-01-13T04:37:28;11.57;;;1.93;;
20144;SDS011;10233;50.814;6.590;2023-01-13T04:38:28;7.77;;;2.10;;
20144;SDS011;10233;50.814;6.590;2023-01-13T04:39:28;8.83;;;1.63;;
20144;SDS011;10233;50.814;6.590;2023-01-13T04:40:29;8.13;;;1.70;;
20144;SDS011;10233;50.814;6.590;2023-01-13T04:41:29;12.20;;;2.10;;
20144;SDS011;10233;50.814;6.590;2023-01-13T04:42:52;9.55;;;1.63;;
20144;SDS011;10233;50.814;6.590;2023-01-13T04:43:53;9.60;;;1.58;;
20144;SDS011;10233;50.814;6.590;2023-01-13T04:44:53;9.17;;;1.90;;
20144;SDS011;10233;50.814;6.590;2023-01-13T04:45:54;7.13;;;1.57;;
20144;SDS011;10233;50.814;6.590;2023-01-13T04:46:54;7.57;;;1.60;;
20144;SDS011;10233;50.814;6.590;2023-01-13T04:47:55;7.32;;;1.23;;
20144;SDS011;10233;50.814;6.590;2023-01-13T04:48:56;13.47;;;2.40;;
20144;SDS011;10233;50.814;6.590;2023-01-13T04:49:56;8.13;;;1.60;;
20144;SDS011;10233;50.814;6.590;2023-01-13T04:50:56;13.33;;;1.83;;
20144;SDS011;10233;50.814;6.590;2023-01-13T04:51:57;8.57;;;1.80;;
20144;SDS011;10233;50.814;6.590;2023-01-13T04:52:57;7.67;;;2.03;;
20144;SDS011;10233;50.814;6.590;2023-01-13T04:54:00;14.75;;;2.00;;
20144;SDS011;10233;50.814;6.590;2023-01-13T04:55:00;7.10;;;1.33;;
20144;SDS011;10233;50.814;6.590;2023-01-13T04:56:01;6.85;;;1.40;;
20144;SDS011;10233;50.814;6.590;2023-01-13T04:57:01;7.40;;;1.43;;
20144;SDS011;10233;50.814;6.590;2023-01-13T04:58:05;12.83;;;1.60;;
20144;SDS011;10233;50.814;6.590;2023-01-13T04:59:11;6.63;;;1.80;;
20144;SDS011;10233;50.814;6.590;2023-01-13T05:00:13;10.98;;;1.60;;
20144;SDS011;10233;50.814;6.590;2023-01-13T05:01:15;12.50;;;1.70;;
20144;SDS011;10233;50.814;6.590;2023-01-13T05:02:16;6.77;;;1.70;;
20144;SDS011;10233;50.814;6.590;2023-01-13T05:03:19;6.38;;;1.40;;
20144;SDS011;10233;50.814;6.590;2023-01-13T05:04:20;9.98;;;1.90;;
20144;SDS011;10233;50.814;6.590;2023-01-13T05:05:24;9.02;;;1.38;;
20144;SDS011;10233;50.814;6.590;2023-01-13T05:06:26;6.03;;;1.52;;
20144;SDS011;10233;50.814;6.590;2023-01-13T05:07:26;5.77;;;1.43;;
20144;SDS011;10233;50.814;6.590;2023-01-13T05:08:27;7.65;;;1.20;;
20144;SDS011;10233;50.814;6.590;2023-01-13T05:09:27;4.93;;;1.50;;
20144;SDS011;10233;50.814;6.590;2023-01-13T05:10:28;5.13;;;1.20;;
20144;SDS011;10233;50.814;6.590;2023-01-13T05:11:28;7.97;;;1.77;;
20144;SDS011;10233;50.814;6.590;2023-01-13T05:12:47;8.15;;;1.52;;
20144;SDS011;10233;50.814;6.590;2023-01-13T05:14:06;5.90;;;1.52;;
20144;SDS011;10233;50.814;6.590;2023-01-13T05:15:25;7.17;;;1.23;;
20144;SDS011;10233;50.814;6.590;2023-01-13T05:16:45;5.45;;;1.10;;
20144;SDS011;10233;50.814;6.590;2023-01-13T05:18:01;8.68;;;1.23;;
20144;SDS011;10233;50.814;6.590;2023-01-13T05:19:01;6.87;;;1.10;;
20144;SDS011;10233;50.814;6.590;2023-01-13T05:20:02;9.00;;;1.60;;
20144;SDS011;10233;50.814;6.590;2023-01-13T05:21:03;6.82;;;1.40;;
20144;SDS011;10233;50.814;6.590;2023-01-13T05:22:24;5.25;;;1.23;;
20144;SDS011;10233;50.814;6.590;2023-01-13T05:23:43;6.43;;;1.13;;
20144;SDS011;10233;50.814;6.590;2023-01-13T05:25:02;9.32;;;1.30;;
20144;SDS011;10233;50.814;6.590;2023-01-13T05:26:21;9.38;;;1.30;;
20144;SDS011;10233;50.814;6.590;2023-01-13T05:27:22;7.65;;;1.13;;
20144;SDS011;10233;50.814;6.590;2023-01-13T05:28:22;7.30;;;0.85;;
20144;SDS011;10233;50.814;6.590;2023-01-13T05:29:23;5.70;;;1.20;;
20144;SDS011;10233;50.814;6.590;2023-01-13T05:30:25;6.03;;;0.70;;
20144;SDS011;10233;50.814;6.590;2023-01-13T05:31:29;8.13;;;1.38;;
20144;SDS011;10233;50.814;6.590;2023-01-13T05:32:29;4.53;;;0.98;;
20144;SDS011;10233;50.814;6.590;2023-01-13T05:33:30;4.53;;;0.88;;
20144;SDS011;10233;50.814;6.590;2023-01-13T05:34:31;3.23;;;1.00;;
20144;SDS011;10233;50.814;6.590;2023-01-13T05:35:32;6.32;;;1.00;;
20144;SDS011;10233;50.814;6.590;2023-01-13T05:36:32;5.30;;;1.10;;
20144;SDS011;10233;50.814;6.590;2023-01-13T05:37:33;4.50;;;1.03;;
20144;SDS011;10233;50.814;6.590;2023-01-13T05:38:33;5.27;;;1.20;;
20144;SDS011;10233;50.814;6.590;2023-01-13T05:39:34;4.15;;;1.00;;
20144;SDS011;10233;50.814;6.590;2023-01-13T05:40:54;6.25;;;1.15;;
20144;SDS011;10233;50.814;6.590;2023-01-13T05:42:16;4.70;;;1.00;;
20144;SDS011;10233;50.814;6.590;2023-01-13T05:43:35;4.13;;;0.85;;
20144;SDS011;10233;50.814;6.590;2023-01-13T05:44:35;2.88;;;1.17;;
20144;SDS011;10233;50.814;6.590;2023-01-13T05:45:36;7.00;;;1.17;;
20144;SDS011;10233;50.814;6.590;2023-01-13T05:46:36;5.72;;;0.90;;
20144;SDS011;10233;50.814;6.590;2023-01-13T05:47:37;4.53;;;1.27;;
20144;SDS011;10233;50.814;6.590;2023-01-13T05:48:38;6.70;;;1.10;;
20144;SDS011;10233;50.814;6.590;2023-01-13T05:49:41;5.88;;;0.90;;
20144;SDS011;10233;50.814;6.590;2023-01-13T05:50:41;2.80;;;0.87;;
20144;SDS011;10233;50.814;6.590;2023-01-13T05:51:42;3.85;;;0.90;;
20144;SDS011;10233;50.814;6.590;2023-01-13T05:52:43;9.23;;;1.13;;
20144;SDS011;10233;50.814;6.590;2023-01-13T05:53:43;4.70;;;0.90;;
20144;SDS011;10233;50.814;6.590;2023-01-13T05:54:44;7.80;;;0.97;;
20144;SDS011;10233;50.814;6.590;2023-01-13T05:55:44;5.73;;;1.40;;
20144;SDS011;10233;50.814;6.590;2023-01-13T05:56:45;2.28;;;0.80;;
20144;SDS011;10233;50.814;6.590;2023-01-13T05:57:46;9.10;;;1.33;;
20144;SDS011;10233;50.814;6.590;2023-01-13T05:58:46;4.32;;;0.98;;
20144;SDS011;10233;50.814;6.590;2023-01-13T05:59:47;4.53;;;1.30;;
20144;SDS011;10233;50.814;6.590;2023-01-13T06:00:47;6.03;;;0.90;;
20144;SDS011;10233;50.814;6.590;2023-01-13T06:01:48;11.75;;;2.90;;
20144;SDS011;10233;50.814;6.590;2023-01-13T06:02:49;5.35;;;1.10;;
20144;SDS011;10233;50.814;6.590;2023-01-13T06:03:50;5.50;;;1.05;;
20144;SDS011;10233;50.814;6.590;2023-01-13T06:04:51;1.90;;;0.60;;
20144;SDS011;10233;50.814;6.590;2023-01-13T06:05:51;5.20;;;1.02;;
20144;SDS011;10233;50.814;6.590;2023-01-13T06:06:57;4.83;;;0.80;;
20144;SDS011;10233;50.814;6.590;2023-01-13T06:07:58;6.80;;;1.37;;
20144;SDS011;10233;50.814;6.590;2023-01-13T06:08:59;4.72;;;1.20;;
20144;SDS011;10233;50.814;6.590;2023-01-13T06:10:00;5.70;;;1.00;;
20144;SDS011;10233;50.814;6.590;2023-01-13T06:11:00;5.80;;;1.13;;
20144;SDS011;10233;50.814;6.590;2023-01-13T06:12:00;5.70;;;1.20;;
20144;SDS011;10233;50.814;6.590;2023-01-13T06:13:01;3.20;;;0.90;;
20144;SDS011;10233;50.814;6.590;2023-01-13T06:14:02;2.97;;;1.00;;
20144;SDS011;10233;50.814;6.590;2023-01-13T06:15:03;7.33;;;1.27;;
20144;SDS011;10233;50.814;6.590;2023-01-13T06:16:04;5.75;;;1.10;;
20144;SDS011;10233;50.814;6.590;2023-01-13T06:17:08;7.18;;;1.20;;
20144;SDS011;10233;50.814;6.590;2023-01-13T06:18:10;3.17;;;1.00;;
20144;SDS011;10233;50.814;6.590;2023-01-13T06:19:11;5.13;;;0.93;;
20144;SDS011;10233;50.814;6.590;2023-01-13T06:20:12;2.83;;;0.98;;
20144;SDS011;10233;50.814;6.590;2023-01-13T06:21:14;4.82;;;0.88;;
20144;SDS011;10233;50.814;6.590;2023-01-13T06:22:15;4.45;;;1.05;;
20144;SDS011;10233;50.814;6.590;2023-01-13T06:23:18;4.35;;;1.30;;
20144;SDS011;10233;50.814;6.590;2023-01-13T06:24:18;4.80;;;1.27;;
20144;SDS011;10233;50.814;6.590;2023-01-13T06:26:45;6.13;;;1.02;;
20144;SDS011;10233;50.814;6.590;2023-01-13T06:27:46;4.53;;;1.20;;
20144;SDS011;10233;50.814;6.590;2023-01-13T06:28:47;3.70;;;1.20;;
20144;SDS011;10233;50.814;6.590;2023-01-13T06:29:49;7.63;;;1.10;;
20144;SDS011;10233;50.814;6.590;2023-01-13T06:30:50;5.85;;;1.33;;
20144;SDS011;10233;50.814;6.590;2023-01-13T06:31:55;8.05;;;1.55;;
20144;SDS011;10233;50.814;6.590;2023-01-13T06:32:57;3.78;;;1.20;;
20144;SDS011;10233;50.814;6.590;2023-01-13T06:34:05;6.43;;;1.17;;
20144;SDS011;10233;50.814;6.590;2023-01-13T06:35:13;3.67;;;0.77;;
20144;SDS011;10233;50.814;6.590;2023-01-13T06:36:21;4.15;;;1.13;;
20144;SDS011;10233;50.814;6.590;2023-01-13T06:37:27;4.40;;;1.40;;
20144;SDS011;10233;50.814;6.590;2023-01-13T06:38:29;3.65;;;1.00;;
20144;SDS011;10233;50.814;6.590;2023-01-13T06:39:33;2.97;;;1.15;;
20144;SDS011;10233;50.814;6.590;2023-01-13T06:40:34;3.58;;;1.17;;
20144;SDS011;10233;50.814;6.590;2023-01-13T06:41:35;4.90;;;1.10;;
20144;SDS011;10233;50.814;6.590;2023-01-13T06:42:55;5.20;;;1.25;;
20144;SDS011;10233;50.814;6.590;2023-01-13T06:44:15;3.13;;;1.00;;
20144;SDS011;10233;50.814;6.590;2023-01-13T06:45:16;3.33;;;0.93;;
20144;SDS011;10233;50.814;6.590;2023-01-13T06:46:17;3.37;;;0.90;;
20144;SDS011;10233;50.814;6.590;2023-01-13T06:47:17;5.50;;;0.80;;
20144;SDS011;10233;50.814;6.590;2023-01-13T06:48:25;2.47;;;0.63;;
20144;SDS011;10233;50.814;6.590;2023-01-13T06:49:28;3.83;;;0.70;;
20144;SDS011;10233;50.814;6.590;2023-01-13T06:50:29;2.70;;;0.70;;
20144;SDS011;10233;50.814;6.590;2023-01-13T06:51:29;2.80;;;0.43;;
20144;SDS011;10233;50.814;6.590;2023-01-13T06:52:30;4.33;;;0.70;;
20144;SDS011;10233;50.814;6.590;2023-01-13T06:53:30;1.60;;;0.70;;